Home   Weather   Germany   Munich   Past weeks
Flag for Germany

Past Weather in Munich, Bavaria, Germany — June 2023

Currently: 45 °F. Scattered clouds. (Weather station: Oberpfaffenhofen, Germany). See more current weather

June 2023 Weather in Munich — Graph

°F

High & Low Weather Summary for June 2023

 TemperatureHumidityPressure
High93 °F (Jun 22, 1:50 pm)100% (Jun 1, 4:20 am)30.36 "Hg (Jun 1, 4:20 am)
Low39 °F (Jun 14, 4:50 am)20% (Jun 13, 3:20 pm)29.86 "Hg (Jun 13, 4:50 pm)
Average65 °F61%30.04 "Hg
* Reported Jun 1 12:20 am — Jun 30 11:50 pm, Munich. Weather by CustomWeather, © 2024

Note: Actual official high and low records may vary slightly from our data, if they occured in-between our weather recording intervals... More about our weather records

Munich Weather History for June 1, 2023

Scroll right to see more
 ConditionsComfort  
Time TempWeatherWind HumidityBarometerVisibility
12:20 am
Thu, Jun 1
52 °FClear.No wind82%30.09 "HgN/A
12:50 am52 °FClear.No wind88%30.09 "HgN/A
1:20 am50 °FClear.1 mph88%30.07 "HgN/A
2:50 am48 °FClear.2 mph87%30.07 "HgN/A
3:20 am48 °FClear.1 mph94%30.07 "HgN/A
3:50 am46 °FClear.2 mph93%30.07 "HgN/A
4:20 am46 °FClear.No wind100%30.07 "HgN/A
4:50 am46 °FClear.2 mph93%30.07 "HgN/A
5:20 am45 °FSunny.1 mph93%30.07 "HgN/A
5:50 am45 °FSunny.2 mph100%30.07 "HgN/A
6:20 am48 °FSunny.1 mph94%30.07 "HgN/A
6:50 am50 °FSunny.2 mph94%30.07 "Hg10 mi
7:20 am55 °FSunny.3 mph82%30.07 "Hg10 mi
7:50 am59 °FPassing clouds.3 mph72%30.07 "HgN/A
8:20 am61 °FPassing clouds.3 mph63%30.07 "HgN/A
9:20 am64 °FSunny.3 mph64%30.07 "Hg10 mi
9:50 am64 °FPassing clouds.5 mph64%30.07 "HgN/A
10:20 am68 °FPassing clouds.6 mph56%30.07 "HgN/A
10:50 am68 °FPassing clouds.5 mph56%30.07 "HgN/A
11:20 am70 °FPassing clouds.9 mph57%30.07 "HgN/A
11:50 am72 °FPassing clouds.8 mph53%30.07 "HgN/A
12:20 pm72 °FSunny.7 mph47%30.07 "Hg10 mi
12:50 pm73 °FPassing clouds.8 mph44%30.07 "HgN/A
1:20 pm73 °FPassing clouds.10 mph41%30.07 "HgN/A
1:50 pm75 °FSunny.6 mph47%30.04 "Hg10 mi
2:20 pm73 °FPassing clouds.9 mph44%30.04 "HgN/A
2:50 pm73 °FPassing clouds.8 mph44%30.04 "HgN/A
3:20 pm75 °FPassing clouds.9 mph44%30.04 "HgN/A
3:50 pm73 °FSunny.14 mph44%30.01 "Hg10 mi
4:20 pm75 °FPassing clouds.7 mph39%30.01 "HgN/A
4:50 pm75 °FPassing clouds.7 mph41%30.01 "HgN/A
5:20 pm75 °FPassing clouds.7 mph36%30.01 "HgN/A
5:50 pm73 °FPassing clouds.8 mph38%30.01 "HgN/A
6:20 pm73 °FSunny.7 mph38%30.01 "Hg10 mi
6:50 pm73 °FSunny.8 mph38%29.98 "Hg10 mi
7:20 pm72 °FSunny.7 mph41%30.01 "Hg10 mi
7:50 pm70 °FSunny.7 mph40%29.98 "HgN/A
8:20 pm70 °FPartly sunny.3 mph40%29.98 "HgN/A
9:20 pm59 °FPassing clouds.2 mph72%30.01 "HgN/A
9:50 pm57 °FPassing clouds.3 mph77%30.01 "HgN/A
10:20 pm57 °FOvercast.1 mph77%30.01 "HgN/A
10:50 pm55 °FPassing clouds.3 mph82%30.01 "HgN/A
11:20 pm54 °FPassing clouds.5 mph88%30.01 "HgN/A
11:50 pm55 °FOvercast.5 mph77%30.01 "HgN/A
Weather by CustomWeather, © 2024

See weather overview